createdAt,value
2023-02-19T00:00:32.088Z,10.84
2023-02-19T00:02:58.566Z,10.79
2023-02-19T00:05:24.927Z,10.59
2023-02-19T00:07:51.302Z,10.55
2023-02-19T00:10:17.688Z,10.47
2023-02-19T00:12:44.126Z,10.53
2023-02-19T00:15:10.477Z,10.27
2023-02-19T00:17:36.876Z,10.24
2023-02-19T00:20:03.310Z,10.27
2023-02-19T00:22:29.653Z,10.47
2023-02-19T00:24:56.033Z,10.46
2023-02-19T00:27:22.412Z,10.23
2023-02-19T00:29:48.779Z,10.18
2023-02-19T00:32:15.198Z,10.13
2023-02-19T00:34:41.604Z,10.04
2023-02-19T00:37:07.952Z,9.83
2023-02-19T00:39:34.327Z,9.62
2023-02-19T00:42:00.677Z,9.64
2023-02-19T00:44:27.076Z,9.88
2023-02-19T00:46:53.501Z,9.90
2023-02-19T00:49:19.889Z,10.08
2023-02-19T00:51:46.255Z,10.13
2023-02-19T00:54:12.618Z,10.05
2023-02-19T00:56:39.087Z,10.13
2023-02-19T00:59:05.458Z,10.09
2023-02-19T01:01:31.973Z,9.84
2023-02-19T01:03:58.387Z,9.86
2023-02-19T01:06:24.810Z,9.79
2023-02-19T01:08:51.194Z,9.61
2023-02-19T01:11:17.586Z,9.69
2023-02-19T01:13:43.975Z,9.72
2023-02-19T01:16:10.345Z,9.81
2023-02-19T01:18:36.772Z,9.90
2023-02-19T01:21:03.130Z,9.90
2023-02-19T01:23:29.486Z,9.88
2023-02-19T01:25:55.885Z,9.96
2023-02-19T01:28:22.231Z,9.95
2023-02-19T01:30:48.626Z,9.92
2023-02-19T01:33:14.978Z,10.13
2023-02-19T01:35:41.348Z,10.03
2023-02-19T01:38:07.813Z,9.95
2023-02-19T01:40:34.187Z,9.87
2023-02-19T01:43:00.636Z,10.01
2023-02-19T01:45:27.010Z,9.79
2023-02-19T01:47:53.392Z,10.03
2023-02-19T01:50:19.756Z,10.14
2023-02-19T01:52:46.136Z,10.02
2023-02-19T01:55:12.501Z,10.02
2023-02-19T01:57:38.896Z,10.06
2023-02-19T02:00:05.266Z,9.88
2023-02-19T02:02:31.634Z,9.76
2023-02-19T02:04:57.996Z,9.82
2023-02-19T02:07:24.389Z,9.86
2023-02-19T02:09:50.772Z,9.88
2023-02-19T02:12:17.149Z,9.83
2023-02-19T02:14:43.504Z,9.91
2023-02-19T02:17:09.958Z,9.85
2023-02-19T02:19:36.329Z,9.96
2023-02-19T02:22:02.693Z,10.11
2023-02-19T02:24:29.061Z,10.10
2023-02-19T02:26:55.428Z,10.01
2023-02-19T02:29:21.789Z,10.02
2023-02-19T02:31:48.324Z,9.94
2023-02-19T02:34:14.737Z,10.04
2023-02-19T02:36:41.145Z,9.93
2023-02-19T02:39:07.596Z,9.82
2023-02-19T02:41:33.996Z,10.06
2023-02-19T02:44:00.351Z,10.00
2023-02-19T02:46:26.725Z,10.06
2023-02-19T02:48:53.101Z,9.91
2023-02-19T02:51:19.509Z,9.93
2023-02-19T02:53:45.881Z,9.87
2023-02-19T02:56:12.267Z,9.96
2023-02-19T02:58:38.640Z,9.87
2023-02-19T03:01:05.080Z,9.81
2023-02-19T03:03:31.460Z,9.69
2023-02-19T03:05:57.815Z,9.75
2023-02-19T03:08:24.177Z,9.89
2023-02-19T03:10:50.911Z,9.77
2023-02-19T03:13:17.290Z,9.80
2023-02-19T03:15:43.669Z,9.79
2023-02-19T03:18:10.038Z,10.02
2023-02-19T03:20:36.411Z,10.09
2023-02-19T03:23:02.793Z,10.17
2023-02-19T03:25:29.157Z,10.06
2023-02-19T03:27:55.538Z,9.89
2023-02-19T03:30:21.950Z,9.72
2023-02-19T03:32:48.328Z,9.50
2023-02-19T03:35:14.717Z,9.36
2023-02-19T03:37:41.144Z,9.18
2023-02-19T03:40:07.522Z,8.99
2023-02-19T03:42:33.982Z,9.06
2023-02-19T03:45:00.376Z,9.16
2023-02-19T03:47:26.760Z,9.14
2023-02-19T03:49:53.133Z,9.29
2023-02-19T03:52:19.534Z,9.15
2023-02-19T03:54:45.897Z,9.28
2023-02-19T03:57:12.260Z,9.21
2023-02-19T03:59:38.627Z,9.33
2023-02-19T04:02:05.013Z,9.30
2023-02-19T04:04:31.410Z,9.44
2023-02-19T04:06:57.834Z,9.57
2023-02-19T04:09:24.196Z,9.76
2023-02-19T04:11:50.561Z,9.78
2023-02-19T04:14:16.943Z,9.72
2023-02-19T04:16:43.346Z,9.55
2023-02-19T04:19:09.820Z,9.54
2023-02-19T04:21:36.193Z,9.33
2023-02-19T04:24:02.630Z,9.32
2023-02-19T04:26:29.021Z,9.32
2023-02-19T04:28:55.508Z,9.37
2023-02-19T04:31:21.924Z,9.52
2023-02-19T04:33:48.330Z,9.68
2023-02-19T04:36:14.717Z,9.61
2023-02-19T04:38:41.117Z,9.58
2023-02-19T04:41:07.654Z,9.73
2023-02-19T04:43:34.096Z,9.80
2023-02-19T04:46:00.505Z,9.83
2023-02-19T04:48:26.886Z,9.79
2023-02-19T04:50:53.269Z,9.47
2023-02-19T04:53:19.630Z,9.33
2023-02-19T04:55:46.088Z,9.24
2023-02-19T04:58:12.538Z,9.43
2023-02-19T05:00:39.937Z,9.53
2023-02-19T05:03:06.296Z,9.74
2023-02-19T05:05:32.649Z,9.57
2023-02-19T05:07:59.058Z,9.25
2023-02-19T05:10:28.385Z,9.44
2023-02-19T05:12:56.831Z,9.13
2023-02-19T05:15:24.172Z,9.14
2023-02-19T05:17:50.566Z,9.45
2023-02-19T05:20:16.922Z,9.25
2023-02-19T05:22:43.311Z,9.26
2023-02-19T05:25:09.736Z,9.19
2023-02-19T05:27:36.127Z,8.76
2023-02-19T05:30:02.592Z,8.73
2023-02-19T05:32:29.030Z,8.57
2023-02-19T05:34:55.384Z,8.40
2023-02-19T05:37:21.763Z,8.43
2023-02-19T05:39:48.179Z,8.47
2023-02-19T05:42:14.556Z,8.56
2023-02-19T05:44:40.932Z,8.63
2023-02-19T05:47:07.304Z,8.44
2023-02-19T05:49:33.714Z,8.48
2023-02-19T05:52:00.210Z,8.66
2023-02-19T05:54:26.707Z,8.74
2023-02-19T05:56:53.117Z,8.75
2023-02-19T05:59:19.476Z,8.71
2023-02-19T06:01:45.840Z,8.96
2023-02-19T06:04:12.251Z,8.92
2023-02-19T06:06:38.704Z,8.83
2023-02-19T06:09:05.086Z,9.00
2023-02-19T06:11:31.499Z,9.15
2023-02-19T06:13:57.921Z,9.16
2023-02-19T06:16:24.391Z,9.09
2023-02-19T06:18:50.818Z,9.13
2023-02-19T06:21:17.261Z,9.30
2023-02-19T06:23:43.645Z,9.41
2023-02-19T06:26:10.008Z,9.49
2023-02-19T06:28:36.386Z,9.65
2023-02-19T06:31:02.795Z,9.58
2023-02-19T06:33:29.252Z,9.64
2023-02-19T06:35:55.634Z,9.77
2023-02-19T06:38:22.009Z,10.00
2023-02-19T06:40:48.432Z,9.97
2023-02-19T06:43:14.778Z,9.99
2023-02-19T06:45:41.146Z,10.01
2023-02-19T06:48:07.526Z,10.01
2023-02-19T06:50:33.873Z,10.01
2023-02-19T06:53:00.261Z,9.97
2023-02-19T06:55:26.636Z,10.10
2023-02-19T06:57:53.039Z,10.09
2023-02-19T07:00:19.426Z,10.09
2023-02-19T07:02:45.808Z,9.91
2023-02-19T07:05:12.190Z,9.97
2023-02-19T07:07:38.561Z,10.22
2023-02-19T07:10:04.929Z,9.95
2023-02-19T07:12:31.281Z,10.14
2023-02-19T07:14:57.739Z,10.09
2023-02-19T07:17:24.101Z,10.11
2023-02-19T07:19:50.464Z,10.17
2023-02-19T07:22:16.838Z,10.24
2023-02-19T07:24:43.213Z,10.05
2023-02-19T07:27:09.584Z,10.18
2023-02-19T07:29:35.947Z,10.39
2023-02-19T07:32:02.442Z,10.24
2023-02-19T07:34:28.813Z,10.13
2023-02-19T07:36:55.168Z,10.16
2023-02-19T07:39:21.567Z,10.06
2023-02-19T07:41:47.937Z,10.42
2023-02-19T07:44:14.333Z,10.09
2023-02-19T07:46:40.714Z,9.90
2023-02-19T07:49:07.084Z,9.82
2023-02-19T07:51:33.469Z,10.09
2023-02-19T07:53:59.820Z,10.16
2023-02-19T07:56:26.243Z,10.38
2023-02-19T07:58:52.650Z,10.49
2023-02-19T08:01:19.249Z,10.58
2023-02-19T08:03:45.673Z,10.86
2023-02-19T08:06:12.051Z,10.84
2023-02-19T08:08:38.430Z,10.90
2023-02-19T08:11:04.796Z,11.00
2023-02-19T08:13:31.174Z,11.20
2023-02-19T08:16:07.521Z,11.09
2023-02-19T08:18:41.082Z,11.16
2023-02-19T08:21:07.478Z,11.34
2023-02-19T08:23:33.883Z,11.29
2023-02-19T08:26:00.308Z,11.11
2023-02-19T08:28:26.687Z,10.84
2023-02-19T08:30:53.130Z,10.76
2023-02-19T08:33:19.521Z,10.60
2023-02-19T08:35:45.877Z,10.44
2023-02-19T08:38:12.320Z,10.54
2023-02-19T08:40:38.725Z,10.48
2023-02-19T08:43:05.092Z,10.56
2023-02-19T08:45:31.498Z,10.63
2023-02-19T08:47:57.891Z,10.72
2023-02-19T08:50:24.382Z,10.89
2023-02-19T08:52:50.763Z,10.91
2023-02-19T08:55:17.135Z,10.73
2023-02-19T08:57:43.701Z,10.54
2023-02-19T09:00:10.078Z,10.72
2023-02-19T09:02:36.460Z,10.96
2023-02-19T09:05:02.926Z,10.98
2023-02-19T09:07:29.363Z,11.24
2023-02-19T09:09:55.736Z,11.23
2023-02-19T09:12:22.119Z,11.32
2023-02-19T09:14:48.515Z,11.20
2023-02-19T09:17:14.912Z,11.43
2023-02-19T09:19:41.303Z,11.42
2023-02-19T09:22:07.670Z,11.40
2023-02-19T09:24:34.023Z,11.42
2023-02-19T09:27:00.375Z,11.66
2023-02-19T09:29:26.776Z,11.82
2023-02-19T09:31:53.204Z,11.91
2023-02-19T09:34:19.574Z,12.40
2023-02-19T09:36:45.941Z,12.83
2023-02-19T09:39:12.341Z,13.15
2023-02-19T09:41:38.730Z,13.41
2023-02-19T09:44:05.094Z,13.74
2023-02-19T09:46:31.686Z,13.83
2023-02-19T09:48:58.157Z,13.50
2023-02-19T09:51:24.501Z,13.34
2023-02-19T09:53:50.944Z,13.44
2023-02-19T09:56:17.299Z,13.57
2023-02-19T09:58:43.667Z,13.60
2023-02-19T10:01:10.457Z,13.42
2023-02-19T10:03:37.073Z,13.24
2023-02-19T10:06:03.425Z,13.44
2023-02-19T10:08:29.802Z,13.25
2023-02-19T10:10:56.164Z,13.77
2023-02-19T10:13:22.592Z,14.07
2023-02-19T10:15:49.010Z,13.80
2023-02-19T10:18:15.422Z,13.98
2023-02-19T10:20:41.786Z,13.93
2023-02-19T10:23:08.163Z,14.00
2023-02-19T10:25:36.385Z,13.27
2023-02-19T10:28:02.739Z,13.24
2023-02-19T10:30:29.138Z,13.18
2023-02-19T10:32:55.584Z,12.91
2023-02-19T10:35:21.945Z,12.85
2023-02-19T10:37:48.322Z,13.45
2023-02-19T10:40:14.723Z,13.35
2023-02-19T10:42:41.125Z,13.48
2023-02-19T10:45:07.495Z,13.93
2023-02-19T10:47:33.866Z,13.93
2023-02-19T10:50:01.504Z,14.21
2023-02-19T10:52:28.897Z,14.18
2023-02-19T10:54:55.244Z,12.98
2023-02-19T10:57:21.603Z,13.51
2023-02-19T10:59:47.977Z,13.29
2023-02-19T11:02:14.372Z,13.51
2023-02-19T11:04:40.804Z,13.49
2023-02-19T11:07:07.173Z,13.71
2023-02-19T11:09:33.549Z,14.16
2023-02-19T11:11:59.930Z,13.22
2023-02-19T11:14:26.388Z,12.80
2023-02-19T11:16:52.731Z,13.71
2023-02-19T11:19:19.093Z,13.07
2023-02-19T11:21:45.445Z,13.07
2023-02-19T11:24:11.821Z,13.21
2023-02-19T11:26:38.206Z,13.51
2023-02-19T11:29:04.605Z,14.22
2023-02-19T11:31:31.060Z,14.01
2023-02-19T11:33:57.507Z,14.48
2023-02-19T11:36:23.932Z,14.86
2023-02-19T11:38:50.320Z,14.99
2023-02-19T11:41:16.709Z,15.13
2023-02-19T11:43:43.083Z,15.37
2023-02-19T11:46:09.482Z,14.86
2023-02-19T11:48:35.847Z,15.05
2023-02-19T11:51:02.244Z,15.68
2023-02-19T11:53:28.718Z,15.64
2023-02-19T11:55:55.123Z,15.43
2023-02-19T11:58:21.517Z,14.92
2023-02-19T12:00:49.250Z,15.55
2023-02-19T12:03:15.631Z,15.79
2023-02-19T12:05:42.002Z,15.91
2023-02-19T12:08:08.448Z,15.88
2023-02-19T12:10:34.798Z,16.16
2023-02-19T12:13:01.163Z,16.03
2023-02-19T12:15:27.568Z,15.53
2023-02-19T12:17:53.920Z,15.27
2023-02-19T12:20:20.307Z,15.74
2023-02-19T12:22:46.673Z,16.14
2023-02-19T12:28:03.355Z,16.64
2023-02-19T12:30:29.817Z,17.12
2023-02-19T12:32:56.273Z,16.17
2023-02-19T12:35:22.637Z,16.19
2023-02-19T12:37:49.007Z,16.10
2023-02-19T12:40:15.361Z,16.04
2023-02-19T12:42:41.762Z,16.06
2023-02-19T12:45:08.430Z,15.87
2023-02-19T12:47:34.793Z,16.42
2023-02-19T12:50:01.190Z,16.68
2023-02-19T12:52:27.552Z,17.25
2023-02-19T12:54:55.825Z,16.95
2023-02-19T12:57:22.444Z,16.36
2023-02-19T12:59:48.832Z,16.61
2023-02-19T13:02:15.263Z,16.73
2023-02-19T13:04:41.675Z,16.20
2023-02-19T13:07:08.058Z,16.80
2023-02-19T13:09:34.473Z,17.35
2023-02-19T13:12:00.876Z,16.81
2023-02-19T13:14:27.241Z,16.86
2023-02-19T13:16:53.722Z,17.32
2023-02-19T13:19:20.165Z,17.55
2023-02-19T13:21:46.533Z,17.80
2023-02-19T13:24:12.958Z,17.17
2023-02-19T13:26:39.332Z,17.47
2023-02-19T13:29:05.698Z,16.98
2023-02-19T13:31:32.176Z,17.32
2023-02-19T13:33:58.616Z,17.56
2023-02-19T13:36:26.599Z,17.88
2023-02-19T13:38:53.024Z,17.89
2023-02-19T13:41:19.427Z,17.78
2023-02-19T13:43:45.789Z,17.65
2023-02-19T13:46:12.255Z,17.30
2023-02-19T13:48:38.692Z,18.25
2023-02-19T13:51:05.062Z,18.33
2023-02-19T13:53:31.446Z,18.01
2023-02-19T13:55:57.818Z,17.90
2023-02-19T13:58:24.185Z,17.70
2023-02-19T14:00:50.563Z,17.84
2023-02-19T14:03:16.936Z,17.25
2023-02-19T14:05:43.313Z,17.90
2023-02-19T14:08:09.694Z,18.30
2023-02-19T14:10:36.057Z,19.00
2023-02-19T14:13:02.423Z,18.76
2023-02-19T14:15:28.834Z,18.43
2023-02-19T14:17:55.225Z,18.21
2023-02-19T14:20:21.598Z,17.64
2023-02-19T14:22:47.941Z,18.07
2023-02-19T14:25:14.310Z,17.41
2023-02-19T14:27:40.685Z,17.75
2023-02-19T14:30:07.096Z,18.17
2023-02-19T14:32:33.587Z,18.34
2023-02-19T14:34:59.947Z,18.44
2023-02-19T14:37:26.311Z,17.00
2023-02-19T14:39:52.679Z,16.08
2023-02-19T14:42:19.072Z,15.46
2023-02-19T14:44:45.476Z,14.81
2023-02-19T14:47:11.830Z,15.09
2023-02-19T14:49:38.195Z,15.68
2023-02-19T14:52:04.571Z,15.89
2023-02-19T14:54:30.939Z,16.65
2023-02-19T14:56:57.462Z,16.80
2023-02-19T14:59:23.822Z,17.52
2023-02-19T15:01:50.230Z,19.16
2023-02-19T15:04:16.624Z,19.76
2023-02-19T15:06:42.974Z,20.49
2023-02-19T15:09:09.366Z,20.34
2023-02-19T15:11:35.747Z,20.95
2023-02-19T15:14:02.130Z,21.55
2023-02-19T15:16:28.747Z,22.56
2023-02-19T15:18:55.149Z,22.11
2023-02-19T15:21:21.510Z,23.01
2023-02-19T15:23:47.901Z,23.27
2023-02-19T15:26:14.287Z,23.69
2023-02-19T15:28:40.672Z,22.94
2023-02-19T15:31:07.037Z,23.64
2023-02-19T15:33:33.457Z,23.42
2023-02-19T15:35:59.841Z,22.71
2023-02-19T15:38:26.246Z,23.78
2023-02-19T15:40:52.653Z,24.96
2023-02-19T15:43:19.023Z,25.74
2023-02-19T15:45:45.390Z,25.69
2023-02-19T15:48:11.795Z,26.34
2023-02-19T15:50:38.168Z,26.53
2023-02-19T15:53:04.537Z,26.98
2023-02-19T15:55:30.926Z,26.83
2023-02-19T15:57:57.280Z,26.74
2023-02-19T16:00:23.664Z,26.59
2023-02-19T16:02:50.096Z,26.10
2023-02-19T16:05:16.478Z,25.75
2023-02-19T16:07:42.842Z,25.72
2023-02-19T16:10:09.238Z,25.42
2023-02-19T16:12:35.618Z,25.38
2023-02-19T16:15:01.959Z,25.10
2023-02-19T16:17:28.342Z,24.92
2023-02-19T16:19:54.723Z,24.17
2023-02-19T16:22:21.107Z,24.17
2023-02-19T16:24:47.467Z,23.57
2023-02-19T16:27:13.847Z,23.03
2023-02-19T16:29:40.232Z,22.97
2023-02-19T16:32:06.678Z,23.02
2023-02-19T16:34:33.275Z,22.84
2023-02-19T16:36:59.723Z,22.42
2023-02-19T16:39:26.081Z,22.12
2023-02-19T16:41:52.448Z,21.41
2023-02-19T16:44:18.890Z,20.99
2023-02-19T16:46:45.240Z,20.47
2023-02-19T16:49:13.104Z,19.65
2023-02-19T16:51:39.493Z,17.76
2023-02-19T16:54:05.866Z,16.72
2023-02-19T16:56:32.264Z,16.06
2023-02-19T16:58:58.622Z,15.30
2023-02-19T17:01:25.012Z,14.66
2023-02-19T17:03:51.447Z,14.06
2023-02-19T17:06:17.836Z,13.73
2023-02-19T17:08:44.191Z,13.39
2023-02-19T17:11:10.903Z,13.48
2023-02-19T17:13:37.440Z,13.36
2023-02-19T17:16:03.884Z,13.23
2023-02-19T17:18:30.319Z,13.18
2023-02-19T17:20:56.698Z,12.85
2023-02-19T17:23:24.488Z,12.79
2023-02-19T17:25:50.969Z,12.61
2023-02-19T17:28:17.361Z,12.57
2023-02-19T17:30:43.722Z,12.53
2023-02-19T17:33:10.112Z,12.44
2023-02-19T17:35:36.489Z,12.39
2023-02-19T17:38:02.867Z,12.45
2023-02-19T17:40:33.060Z,12.44
2023-02-19T17:43:00.026Z,12.78
2023-02-19T17:46:41.253Z,12.67
2023-02-19T17:49:07.610Z,12.29
2023-02-19T17:51:33.968Z,12.23
2023-02-19T17:54:00.369Z,12.16
2023-02-19T17:56:26.757Z,12.14
2023-02-19T17:58:53.160Z,11.98
2023-02-19T18:01:19.554Z,11.83
2023-02-19T18:03:46.007Z,11.94
2023-02-19T18:06:12.402Z,11.90
2023-02-19T18:08:38.773Z,11.73
2023-02-19T18:11:05.135Z,11.57
2023-02-19T18:13:31.509Z,11.43
2023-02-19T18:15:57.903Z,11.35
2023-02-19T18:18:24.283Z,11.36
2023-02-19T18:20:50.630Z,11.39
2023-02-19T18:23:17.025Z,11.22
2023-02-19T18:25:43.472Z,11.19
2023-02-19T18:28:09.861Z,11.19
2023-02-19T18:30:36.305Z,11.14
2023-02-19T18:33:02.741Z,11.19
2023-02-19T18:35:31.790Z,11.18
2023-02-19T18:37:59.085Z,11.07
2023-02-19T18:40:25.466Z,11.11
2023-02-19T18:42:51.877Z,11.22
2023-02-19T18:45:18.261Z,11.07
2023-02-19T18:47:44.646Z,11.16
2023-02-19T18:50:11.008Z,11.14
2023-02-19T18:52:37.413Z,11.12
2023-02-19T18:55:03.770Z,11.10
2023-02-19T18:57:30.126Z,11.00
2023-02-19T18:59:56.489Z,11.05
2023-02-19T19:02:22.845Z,11.05
2023-02-19T19:04:49.226Z,11.06
2023-02-19T19:07:15.588Z,11.07
2023-02-19T19:09:41.998Z,11.07
2023-02-19T19:12:08.401Z,11.13
2023-02-19T19:14:34.777Z,11.22
2023-02-19T19:17:01.173Z,10.96
2023-02-19T19:19:27.536Z,10.93
2023-02-19T19:21:53.949Z,10.89
2023-02-19T19:24:20.315Z,10.91
2023-02-19T19:26:46.680Z,10.72
2023-02-19T19:29:13.453Z,10.80
2023-02-19T19:31:39.888Z,10.91
2023-02-19T19:34:06.349Z,10.88
2023-02-19T19:36:32.729Z,10.94
2023-02-19T19:38:59.181Z,10.85
2023-02-19T19:41:25.625Z,10.83
2023-02-19T19:43:51.993Z,10.71
2023-02-19T19:46:18.402Z,10.70
2023-02-19T19:48:44.787Z,10.74
2023-02-19T19:51:11.456Z,10.72
2023-02-19T19:53:39.170Z,10.77
2023-02-19T19:56:05.558Z,10.71
2023-02-19T19:58:31.949Z,10.81
2023-02-19T20:00:58.344Z,10.81
2023-02-19T20:03:24.725Z,10.80
2023-02-19T20:05:51.112Z,10.83
2023-02-19T20:08:17.544Z,10.89
2023-02-19T20:10:45.402Z,10.91
2023-02-19T20:13:11.892Z,10.89
2023-02-19T20:15:40.085Z,10.87
2023-02-19T20:18:06.472Z,11.00
2023-02-19T20:20:32.837Z,10.97
2023-02-19T20:22:59.208Z,10.88
2023-02-19T20:25:25.660Z,10.84
2023-02-19T20:27:52.044Z,10.86
2023-02-19T20:30:18.451Z,10.80
2023-02-19T20:32:44.853Z,10.94
2023-02-19T20:35:11.220Z,10.83
2023-02-19T20:37:37.655Z,10.78
2023-02-19T20:40:04.019Z,10.80
2023-02-19T20:42:30.370Z,10.75
2023-02-19T20:44:56.792Z,10.76
2023-02-19T20:47:23.163Z,10.67
2023-02-19T20:49:49.560Z,10.72
2023-02-19T20:52:16.007Z,10.63
2023-02-19T20:54:42.400Z,10.71
2023-02-19T20:57:08.781Z,10.73
2023-02-19T20:59:35.222Z,10.72
2023-02-19T21:02:01.715Z,10.63
2023-02-19T21:04:28.170Z,10.58
2023-02-19T21:06:54.549Z,10.63
2023-02-19T21:09:20.916Z,10.65
2023-02-19T21:11:47.315Z,10.64
2023-02-19T21:14:13.669Z,10.48
2023-02-19T21:16:40.065Z,10.60
2023-02-19T21:19:06.415Z,10.67
2023-02-19T21:21:32.939Z,10.69
2023-02-19T21:23:59.331Z,10.66
2023-02-19T21:26:25.722Z,10.73
2023-02-19T21:28:52.152Z,10.88
2023-02-19T21:31:18.608Z,10.86
2023-02-19T21:33:45.028Z,10.81
2023-02-19T21:36:11.637Z,10.58
2023-02-19T21:38:38.293Z,10.75
2023-02-19T21:41:04.662Z,10.62
2023-02-19T21:43:31.052Z,10.80
2023-02-19T21:45:57.445Z,10.66
2023-02-19T21:48:23.905Z,10.67
2023-02-19T21:50:50.335Z,10.68
2023-02-19T21:53:16.693Z,10.72
2023-02-19T21:55:57.454Z,10.54
2023-02-19T21:58:24.449Z,10.56
2023-02-19T22:00:50.835Z,10.33
2023-02-19T22:03:17.213Z,10.23
2023-02-19T22:05:43.593Z,10.23
2023-02-19T22:08:09.957Z,10.30
2023-02-19T22:10:36.337Z,10.30
2023-02-19T22:13:02.721Z,10.35
2023-02-19T22:15:29.093Z,10.20
2023-02-19T22:17:55.506Z,10.17
2023-02-19T22:20:21.879Z,10.11
2023-02-19T22:22:48.264Z,10.20
2023-02-19T22:25:14.650Z,10.22
2023-02-19T22:27:41.041Z,10.15
2023-02-19T22:30:08.710Z,10.36
2023-02-19T22:32:35.228Z,10.34
2023-02-19T22:35:01.688Z,10.34
2023-02-19T22:37:28.090Z,10.41
2023-02-19T22:39:54.489Z,10.46
2023-02-19T22:42:20.862Z,10.35
2023-02-19T22:44:47.389Z,10.50
2023-02-19T22:47:13.780Z,10.39
2023-02-19T22:49:40.134Z,10.53
2023-02-19T22:52:06.629Z,10.25
2023-02-19T22:54:32.984Z,10.17
2023-02-19T22:56:59.358Z,10.08
2023-02-19T22:59:25.722Z,10.09
2023-02-19T23:01:52.119Z,10.23
2023-02-19T23:04:18.524Z,10.15
2023-02-19T23:06:45.531Z,10.27
2023-02-19T23:09:11.946Z,10.44
2023-02-19T23:11:38.360Z,10.46
2023-02-19T23:14:04.745Z,10.38
2023-02-19T23:16:31.120Z,10.50
2023-02-19T23:18:57.524Z,10.42
2023-02-19T23:21:23.909Z,10.27
2023-02-19T23:23:50.376Z,10.20
2023-02-19T23:26:16.783Z,9.90
2023-02-19T23:28:43.226Z,9.95
2023-02-19T23:31:09.782Z,9.97
2023-02-19T23:33:36.245Z,9.92
2023-02-19T23:36:02.620Z,10.03
2023-02-19T23:38:29.015Z,9.97
2023-02-19T23:40:55.392Z,10.18
2023-02-19T23:43:21.746Z,10.07
2023-02-19T23:45:48.275Z,10.14
2023-02-19T23:48:14.659Z,9.92
2023-02-19T23:50:41.113Z,9.87
2023-02-19T23:53:07.510Z,9.90
2023-02-19T23:55:33.877Z,9.56
2023-02-19T23:58:00.233Z,9.40
